Pagina principale
METAR-TAF:

METAR-TAF

Aeroporti :

Aeroporto di Cervia-Pisignano

Cervia, Italia

latitudine: 44-13N, longitudine: 012-18E, altezza: 6 m

Osservazione

Il bollettino è stato emesso 1 ora e 6 minuti fa, alle 14:55 UTC
Vento 10 kt da est
Temperature 21°C
Umidità 49%
Pressione 1015 hPa
Visibilità 10 km o più
nessuna nube inferiore a 1500 m e nessun cumulonembo

METAR: LIPC 311455Z 08010KT CAVOK 21/10 Q1015 RMK BKN FEW100 BKN200 VIS MIN 9999 WIND THR11 08008KT WIND THR29 10009KT BLU

Ora: 18:01 (16:01 UTC)

Previsione

Il bollettino è stato emesso 2 ore e 1 minuti fa, alle 14:00 UTC
Previsione valida dal 31 alle 15 UTC al 31 alle 24 UTC
Vento 7 kt da est/sud-est
Visibilità 10 km o più
nessuna nube inferiore a 1500 m e nessun cumulonembo

TAF: LIPC 311400Z 3115/3124 11007KT CAVOK

Osservazioni e previsioni meteorologiche di più di 4000 aeroporti (messaggi METAR e TAF).

Le stazioni disponibili sono rappresentate dai dischi gialli e rossi sulla carta.

Puntare il mouse per vedere il nome della stazione.

Clicca sopra per visualizzare le osservazioni e previsioni meteorologiche.

Per cambiare la mappa : fare clic sui pulsanti verdi con una croce nera per ingrandire, il pulsante verde con un trattino per diminuire, o sulla freccia verde per le mappe adiacenti.


METAR-TAF: